This is the latest recevied weather packets stored in our database for station/object EA1JAO-11. If no packets are shown the sender has not sent any weather packets the latest 10 day(s).
| Time | Temp. | Humidity | Pressure | Rain* | Wind** | Luminosity | Snow |
|---|---|---|---|---|---|---|---|
| 1777509378 | 13.33° C | 93% | 1010.3 hPa | - | - | - | - |
| 1777507577 | 13.33° C | 94% | 1009.9 hPa | - | - | - | - |
| 1777505777 | 13.33° C | 91% | 1009.6 hPa | - | - | - | - |
| 1777503977 | 13.33° C | 90% | 1009.5 hPa | - | - | - | - |
| 1777502176 | 13.89° C | 90% | 1009.2 hPa | - | - | - | - |
| 1777500376 | 13.89° C | 89% | 1009 hPa | - | - | - | - |
| 1777498576 | 14.44° C | 87% | 1009 hPa | - | - | - | - |
| 1777496777 | 14.44° C | 89% | 1008.8 hPa | - | - | - | - |
| 1777495644 | 14.44° C | 85% | 1008.3 hPa | - | - | - | - |
| 1777495613 | 14.44° C | 85% | 1008.3 hPa | - | - | - | - |
| 1777494984 | 14.44° C | 85% | 1008.3 hPa | - | - | - | - |
| 1777493177 | 15.56° C | 83% | 1007.7 hPa | - | - | - | - |
| 1777491376 | 15.56° C | 84% | 1007.3 hPa | - | - | - | - |
| 1777489576 | 16.11° C | 81% | 1007 hPa | - | - | - | - |
| 1777487777 | 16.11° C | 80% | 1006.7 hPa | - | - | - | - |
| 1777485977 | 16.67° C | 78% | 1006.6 hPa | - | - | - | - |
| 1777484177 | 16.67° C | 76% | 1006.3 hPa | - | - | - | - |
| 1777482377 | 16.11° C | 77% | 1005.8 hPa | - | - | - | - |
| 1777480576 | 18.33° C | 69% | 1005.7 hPa | - | - | - | - |
| 1777478772 | 18.89° C | 68% | 1005.7 hPa | - | - | - | - |
| 1777476972 | 18.89° C | 67% | 1005.7 hPa | - | - | - | - |
| 1777475172 | 18.89° C | 65% | 1005.6 hPa | - | - | - | - |
| 1777473372 | 18.89° C | 66% | 1005.7 hPa | - | - | - | - |
| 1777471572 | 18.89° C | 65% | 1005.9 hPa | - | - | - | - |
| 1777469772 | 20° C | 62% | 1006 hPa | - | - | - | - |
* Rain since midnight (hover to see other rain measurements)
** Current wind speed in m/s (hover to see current wind gust speed)